Main page
METAR-TAF:

METAR-TAF

Airports :

Bahrain International Airport

Bahrain, Bahrain

latitude: 26-16N, longitude: 050-39E, elevation: 2 m

Current weather observation

The report was made 1 hour and 3 minutes ago, at 22:00 UTC
Wind 6 kt from the West
Temperature 36°C
Humidity 47%
Pressure 995 hPa
Visibility 10 km or more
no clouds below 1500 m and no cumulonimbus

METAR: OBBI 142200Z 27006KT CAVOK 36/23 Q0995 NOSIG

Time: 02:03 (23:03 UTC)

Forecast

The report was made 6 hours and 3 minutes ago, at 17:00 UTC
Forecast valid from 14 at 18 UTC to 16 at 00 UTC
Wind 8 kt from the Northwest
Visibility 10 km or more
no clouds below 1500 m and no cumulonimbus

TAF: OBBI 141700Z 1418/1600 31008KT CAVOK

Weather observations and forecasts of more than 4000 airports (METAR and TAF reports).

The available stations are represented by yellow and red dots on the map.

Hover mouse over dot to see the name of the station.

Then click to see weather observations and forecasts.

To change the map : click on the green buttons with a black cross to zoom in, on the green button with a dash to zoom out, or on the green arrows for adjacent maps.


METAR-TAF: